Time;durP1;ratioP1;P1;durP2;ratioP2;P2;SDS_P1;SDS_P2;PMS_P1;PMS_P2;Temp;Humidity;BMP_temperature;BMP_pressure;BME280_temperature;BME280_humidity;BME280_pressure;Samples;Min_cycle;Max_cycle;Signal;HPM_P1;HPM_P2
2022/07/30 00:02:22;;;;;;;;;3.25;2.75;;;;;25.80;33.16;101431.69;5020368;28;45671;-69
2022/07/30 00:04:48;;;;;;;;;3.00;3.00;;;;;25.76;32.99;101432.97;5021197;28;46063;-69
2022/07/30 00:07:13;;;;;;;;;2.75;2.75;;;;;25.72;33.07;101436.06;5022560;28;45544;-70
2022/07/30 00:09:39;;;;;;;;;4.75;4.75;;;;;25.69;33.96;101434.47;5022667;28;45495;-69
2022/07/30 00:12:05;;;;;;;;;4.00;4.00;;;;;25.70;33.64;101434.34;5022358;28;45236;-69
2022/07/30 00:14:33;;;;;;;;;3.50;3.50;;;;;25.69;33.77;101432.63;5022017;28;47406;-69
2022/07/30 00:16:59;;;;;;;;;6.25;6.00;;;;;25.66;33.51;101438.34;5022321;28;45265;-70
2022/07/30 00:19:24;;;;;;;;;2.25;2.25;;;;;25.67;33.72;101441.94;5022214;28;45526;-69
2022/07/30 00:21:49;;;;;;;;;4.50;4.00;;;;;25.63;33.81;101435.00;5021634;28;50102;-69
2022/07/30 00:24:14;;;;;;;;;3.75;3.75;;;;;25.60;33.93;101436.13;5021337;28;59539;-69
2022/07/30 00:26:40;;;;;;;;;3.75;3.75;;;;;25.61;34.47;101436.97;5021148;28;45348;-69
2022/07/30 00:29:05;;;;;;;;;4.50;3.75;;;;;25.58;34.14;101431.81;5022142;28;45423;-69
2022/07/30 00:31:31;;;;;;;;;5.75;4.00;;;;;25.58;34.31;101435.41;5022101;28;45335;-69
2022/07/30 00:33:56;;;;;;;;;3.25;3.25;;;;;25.53;34.20;101434.91;5021748;28;45284;-69
2022/07/30 00:36:21;;;;;;;;;3.25;3.25;;;;;25.50;34.87;101427.84;5022237;28;45257;-69
2022/07/30 00:38:47;;;;;;;;;5.25;3.00;;;;;25.49;34.97;101425.22;5021976;28;45348;-69
2022/07/30 00:41:12;;;;;;;;;3.25;3.25;;;;;25.47;34.83;101428.09;5021801;28;45390;-69
2022/07/30 00:43:37;;;;;;;;;3.75;3.75;;;;;25.46;35.17;101422.75;5020159;28;46199;-69
2022/07/30 00:46:03;;;;;;;;;4.75;3.75;;;;;25.43;34.98;101418.44;5022055;28;45375;-69
2022/07/30 00:48:28;;;;;;;;;4.00;3.50;;;;;25.47;34.88;101429.97;5022015;28;45332;-69
2022/07/30 00:50:54;;;;;;;;;4.50;4.00;;;;;25.45;34.70;101421.88;5011236;28;45517;-69
2022/07/30 00:53:19;;;;;;;;;4.00;4.00;;;;;25.45;34.67;101426.50;5020503;28;48032;-69
2022/07/30 00:55:44;;;;;;;;;2.00;2.00;;;;;25.42;35.09;101416.69;5020814;28;45470;-69
2022/07/30 00:58:10;;;;;;;;;7.00;5.00;;;;;25.38;34.96;101409.75;5020084;28;45335;-69
2022/07/30 01:00:35;;;;;;;;;6.00;5.00;;;;;25.40;35.59;101415.94;5021467;28;45328;-69
2022/07/30 01:03:00;;;;;;;;;4.50;3.25;;;;;25.32;35.31;101402.06;5021460;28;45541;-69
2022/07/30 01:05:26;;;;;;;;;4.25;4.25;;;;;25.38;35.12;101411.63;5021465;28;45300;-69
2022/07/30 01:07:51;;;;;;;;;3.75;3.75;;;;;25.39;34.99;101410.63;5021745;28;45358;-69
2022/07/30 01:10:17;;;;;;;;;4.00;4.00;;;;;25.38;35.78;101415.22;5021793;28;45285;-69
2022/07/30 01:12:44;;;;;;;;;4.00;4.00;;;;;25.35;35.83;101412.75;5021268;28;46330;-69
2022/07/30 01:15:10;;;;;;;;;4.75;4.75;;;;;25.31;35.35;101405.81;5021316;28;45282;-69
2022/07/30 01:17:36;;;;;;;;;5.00;3.00;;;;;25.27;35.24;101405.19;5021636;28;45170;-69
2022/07/30 01:20:16;;;;;;;;;3.25;3.25;;;;;25.28;35.79;101417.84;5021689;28;45480;-69
2022/07/30 01:23:12;;;;;;;;;5.00;4.00;;;;;25.23;36.15;101413.75;5020193;28;46253;-69
2022/07/30 01:25:49;;;;;;;;;6.75;5.75;;;;;25.18;36.34;101407.81;5020304;28;45229;-69
2022/07/30 01:28:18;;;;;;;;;5.25;5.25;;;;;25.14;36.26;101416.25;5021283;28;45328;-69
2022/07/30 01:30:45;;;;;;;;;5.00;5.00;;;;;25.13;36.42;101413.66;5020988;28;45454;-69
2022/07/30 01:33:13;;;;;;;;;7.00;7.00;;;;;25.13;36.11;101421.84;5020896;28;47219;-69
2022/07/30 01:35:40;;;;;;;;;5.75;5.75;;;;;25.10;36.44;101416.63;5021152;28;45551;-69
2022/07/30 01:38:08;;;;;;;;;5.50;5.50;;;;;25.10;36.40;101412.03;5020988;28;45305;-69
2022/07/30 01:40:36;;;;;;;;;3.00;3.00;;;;;25.07;36.55;101404.09;5021018;28;45306;-69
2022/07/30 01:43:02;;;;;;;;;4.75;4.75;;;;;25.06;36.50;101415.13;5010862;28;46213;-69
2022/07/30 01:45:29;;;;;;;;;6.00;3.00;;;;;25.05;36.56;101411.56;5017034;28;45246;-69
2022/07/30 01:47:59;;;;;;;;;6.00;4.75;;;;;25.01;36.59;101415.56;5021315;28;45296;-70
2022/07/30 01:50:26;;;;;;;;;7.25;6.00;;;;;24.96;37.21;101409.59;5011135;28;45533;-69
2022/07/30 01:52:54;;;;;;;;;7.00;6.00;;;;;24.96;36.92;101415.06;5019395;28;45426;-69
2022/07/30 01:55:25;;;;;;;;;5.00;5.00;;;;;24.97;36.87;101414.06;5018543;28;45565;-69
2022/07/30 01:57:54;;;;;;;;;5.75;4.50;;;;;24.96;37.05;101413.19;5020999;28;45298;-70
2022/07/30 02:00:21;;;;;;;;;4.25;4.25;;;;;24.96;37.18;101409.59;5018927;28;45397;-69
2022/07/30 02:02:47;;;;;;;;;6.00;6.00;;;;;24.89;37.18;101401.06;5020221;28;46103;-69
2022/07/30 02:05:12;;;;;;;;;6.00;6.00;;;;;24.93;36.84;101409.84;5020481;28;45308;-69
2022/07/30 02:07:44;;;;;;;;;6.75;6.75;;;;;24.91;37.83;101409.13;5020937;28;45521;-69
2022/07/30 02:10:18;;;;;;;;;8.25;7.00;;;;;24.90;37.87;101410.09;5019499;28;45254;-69
2022/07/30 02:12:52;;;;;;;;;6.00;6.00;;;;;24.88;37.46;101414.81;5020327;28;46424;-69
2022/07/30 02:15:33;;;;;;;;;7.25;5.75;;;;;24.85;37.96;101410.47;5020186;28;45360;-69
2022/07/30 02:18:21;;;;;;;;;7.00;6.25;;;;;24.82;37.98;101410.72;5020599;28;45445;-69
2022/07/30 02:20:59;;;;;;;;;7.00;6.25;;;;;24.80;38.03;101410.00;5020069;28;45762;-69
2022/07/30 02:23:27;;;;;;;;;7.25;6.25;;;;;24.78;38.14;101406.53;5020010;28;47285;-69
2022/07/30 02:25:52;;;;;;;;;6.00;6.00;;;;;24.76;37.82;101409.38;5019221;28;45402;-69
2022/07/30 02:28:21;;;;;;;;;6.75;6.75;;;;;24.72;38.05;101402.41;5019217;28;45402;-69
2022/07/30 02:30:52;;;;;;;;;5.75;5.75;;;;;24.71;37.99;101402.56;5019764;28;45537;-69
2022/07/30 02:33:22;;;;;;;;;7.00;5.75;;;;;24.64;38.46;101401.31;5020021;28;45498;-69
2022/07/30 02:35:50;;;;;;;;;4.00;4.00;;;;;24.63;38.45;101403.19;5020249;28;45540;-69
2022/07/30 02:38:17;;;;;;;;;8.75;6.75;;;;;24.54;38.51;101396.59;5020399;28;45300;-69
2022/07/30 02:40:44;;;;;;;;;6.00;4.50;;;;;24.56;38.77;101397.34;5020080;28;45349;-69
2022/07/30 02:43:13;;;;;;;;;5.25;5.25;;;;;24.54;38.84;101393.84;5008733;28;46180;-69
2022/07/30 02:45:40;;;;;;;;;5.00;5.00;;;;;24.56;38.34;101391.03;5018039;28;45186;-69
2022/07/30 02:48:07;;;;;;;;;5.75;5.75;;;;;24.57;38.54;101395.47;5020368;28;45408;-69
2022/07/30 02:50:34;;;;;;;;;8.25;5.00;;;;;24.52;38.19;101387.63;5010523;28;45487;-69
2022/07/30 02:53:02;;;;;;;;;5.25;5.25;;;;;24.51;38.58;101391.38;5019683;28;45422;-69
2022/07/30 02:55:31;;;;;;;;;6.25;6.25;;;;;24.50;38.57;101391.50;5017411;28;45220;-69
2022/07/30 02:57:58;;;;;;;;;6.25;6.25;;;;;24.48;39.08;101396.22;5020100;28;45326;-69
2022/07/30 03:00:25;;;;;;;;;5.50;5.50;;;;;24.45;39.22;101407.38;5019520;28;45280;-69
2022/07/30 03:02:52;;;;;;;;;5.25;5.25;;;;;24.39;39.19;101401.44;5019569;28;45324;-69
2022/07/30 03:05:19;;;;;;;;;5.50;4.75;;;;;24.39;39.32;101403.25;5019759;28;45542;-69
2022/07/30 03:07:45;;;;;;;;;6.00;4.75;;;;;24.35;39.57;101399.91;5020008;28;45230;-69
2022/07/30 03:10:12;;;;;;;;;5.25;5.25;;;;;24.34;39.29;101403.66;5019303;28;45307;-69
2022/07/30 03:12:39;;;;;;;;;4.75;4.25;;;;;24.31;39.45;101401.16;5018892;28;45454;-69
2022/07/30 03:15:05;;;;;;;;;7.50;6.25;;;;;24.29;39.43;101400.44;5014445;28;45439;-69
2022/07/30 03:17:36;;;;;;;;;4.25;4.25;;;;;24.26;39.29;101400.66;5019519;28;45443;-69
2022/07/30 03:20:06;;;;;;;;;5.50;4.75;;;;;24.25;39.48;101404.38;5019821;28;45514;-69
2022/07/30 03:22:35;;;;;;;;;7.00;5.25;;;;;24.23;39.47;101400.91;5019413;28;47115;-69
2022/07/30 03:25:02;;;;;;;;;5.75;5.75;;;;;24.21;39.91;101398.31;5018296;28;45377;-69
2022/07/30 03:27:29;;;;;;;;;7.00;6.75;;;;;24.19;39.57;101399.41;5018493;28;45353;-69
2022/07/30 03:29:56;;;;;;;;;6.25;5.25;;;;;24.17;39.81;101402.28;5019630;28;45478;-69
2022/07/30 03:32:22;;;;;;;;;5.00;5.00;;;;;24.14;40.02;101401.63;5019097;28;46311;-69
2022/07/30 03:34:48;;;;;;;;;5.00;5.00;;;;;24.11;39.82;101391.84;5019488;28;45573;-69
2022/07/30 03:37:14;;;;;;;;;5.50;4.00;;;;;24.14;40.22;101385.25;5019346;28;45496;-69
2022/07/30 03:39:40;;;;;;;;;3.75;3.75;;;;;24.12;39.83;101384.53;5019561;28;45340;-69
2022/07/30 03:42:06;;;;;;;;;6.00;6.00;;;;;24.09;39.90;101387.50;5015395;28;46335;-69
2022/07/30 03:44:33;;;;;;;;;6.50;6.00;;;;;24.08;39.86;101394.81;5007951;28;45764;-69
2022/07/30 03:46:59;;;;;;;;;7.25;6.75;;;;;24.07;40.05;101394.94;5017457;28;45331;-69
2022/07/30 03:49:25;;;;;;;;;8.00;6.00;;;;;24.05;40.06;101397.78;5013478;28;45246;-69
2022/07/30 03:51:52;;;;;;;;;6.50;5.00;;;;;24.01;40.59;101399.03;5016394;28;46262;-69
2022/07/30 03:54:18;;;;;;;;;5.25;5.25;;;;;24.00;40.17;101409.03;5018087;28;45467;-69
2022/07/30 03:56:44;;;;;;;;;5.00;5.00;;;;;23.99;40.44;101409.16;5018498;28;45431;-69
2022/07/30 03:59:11;;;;;;;;;6.00;5.00;;;;;23.96;40.69;101410.28;5019090;28;45320;-69
2022/07/30 04:01:37;;;;;;;;;4.25;4.25;;;;;23.94;40.35;101414.09;5018702;28;45545;-69
2022/07/30 04:04:07;;;;;;;;;7.00;7.00;;;;;23.92;40.49;101416.97;5018963;28;45480;-69
2022/07/30 04:06:38;;;;;;;;;6.00;5.00;;;;;23.86;40.56;101406.56;5018672;28;45459;-69
2022/07/30 04:09:04;;;;;;;;;6.00;5.00;;;;;23.84;40.71;101406.66;5019215;28;45304;-69
2022/07/30 04:11:30;;;;;;;;;9.00;7.00;;;;;23.84;40.63;101409.41;5016819;28;47315;-68
2022/07/30 04:13:55;;;;;;;;;7.25;6.00;;;;;23.78;40.35;101401.66;5015665;28;45436;-69
2022/07/30 04:16:33;;;;;;;;;5.00;5.00;;;;;23.83;40.60;101399.47;5017091;28;45472;-68
2022/07/30 04:19:02;;;;;;;;;6.25;5.50;;;;;23.79;41.17;101403.41;5018857;28;45487;-69
2022/07/30 04:21:30;;;;;;;;;6.00;6.00;;;;;23.79;41.02;101410.69;5018176;28;46405;-69
2022/07/30 04:23:58;;;;;;;;;5.50;4.75;;;;;23.76;40.93;101408.22;5016702;28;47066;-68
2022/07/30 04:26:24;;;;;;;;;6.75;6.75;;;;;23.74;40.95;101410.19;5020533;28;45309;-68
2022/07/30 04:28:49;;;;;;;;;5.50;5.25;;;;;23.73;40.99;101416.63;5021984;28;45292;-68
2022/07/30 04:31:15;;;;;;;;;6.75;6.75;;;;;23.71;40.94;101418.63;5022049;28;45327;-68
2022/07/30 04:33:44;;;;;;;;;6.25;6.25;;;;;23.68;41.03;101417.84;5021871;28;45253;-68
2022/07/30 04:36:10;;;;;;;;;4.75;4.75;;;;;23.69;41.60;101418.75;5022396;28;45392;-68
2022/07/30 04:38:35;;;;;;;;;4.50;4.50;;;;;23.69;41.40;101424.19;5021804;28;48005;-68
2022/07/30 04:41:01;;;;;;;;;6.00;6.00;;;;;23.66;41.26;101414.38;5021737;28;47137;-68
2022/07/30 04:43:26;;;;;;;;;5.25;4.75;;;;;23.66;41.35;101425.28;5007921;28;46558;-68
2022/07/30 04:45:51;;;;;;;;;6.00;6.00;;;;;23.67;41.29;101427.03;5021586;28;45253;-68
2022/07/30 04:48:17;;;;;;;;;5.25;5.25;;;;;23.64;41.35;101419.09;5021967;28;45510;-68
2022/07/30 04:50:45;;;;;;;;;7.00;6.00;;;;;23.63;41.68;101417.34;5012085;28;46172;-68
2022/07/30 04:53:11;;;;;;;;;6.25;6.00;;;;;23.61;41.72;101424.78;5020834;28;45335;-68
2022/07/30 04:55:41;;;;;;;;;7.50;6.75;;;;;23.57;41.85;101420.56;5021760;28;45249;-68
2022/07/30 04:58:09;;;;;;;;;4.50;4.50;;;;;23.58;41.77;101435.03;5021864;28;45420;-68
2022/07/30 05:00:37;;;;;;;;;4.75;4.75;;;;;23.55;42.03;101425.22;5021215;28;45314;-68
2022/07/30 05:03:04;;;;;;;;;1.00;1.00;;;;;23.53;42.01;101426.34;5021530;28;45411;-68
2022/07/30 05:05:31;;;;;;;;;6.00;6.00;;;;;23.49;41.91;101423.00;5021660;28;45741;-68
2022/07/30 05:07:58;;;;;;;;;6.00;6.00;;;;;23.51;42.16;101428.34;5021602;28;45367;-68
2022/07/30 05:10:24;;;;;;;;;6.50;5.25;;;;;23.48;42.07;101429.41;5021606;28;45605;-68
2022/07/30 05:12:49;;;;;;;;;7.00;7.00;;;;;23.45;42.17;101419.59;5020491;28;45500;-68
2022/07/30 05:15:15;;;;;;;;;6.00;6.00;;;;;23.44;42.39;101426.06;5021278;28;45232;-68
2022/07/30 05:17:40;;;;;;;;;7.25;7.25;;;;;23.41;41.95;101431.75;5021182;28;45556;-68
2022/07/30 05:20:06;;;;;;;;;8.50;8.00;;;;;23.38;41.85;101431.09;5021623;28;45246;-68
2022/07/30 05:22:31;;;;;;;;;8.00;8.00;;;;;23.35;41.77;101432.19;5021271;28;45488;-68
2022/07/30 05:24:57;;;;;;;;;7.25;7.25;;;;;23.35;41.97;101434.91;5020240;28;45386;-68
2022/07/30 05:27:22;;;;;;;;;8.25;7.25;;;;;23.34;41.71;101445.94;5020881;28;45565;-68
2022/07/30 05:29:48;;;;;;;;;6.75;6.00;;;;;23.31;41.46;101442.47;5021354;28;45399;-68
2022/07/30 05:32:13;;;;;;;;;8.75;7.00;;;;;23.29;42.66;101440.84;5020900;28;45254;-68
2022/07/30 05:34:38;;;;;;;;;6.75;6.75;;;;;23.32;43.07;101448.75;5021303;28;45198;-69
2022/07/30 05:37:03;;;;;;;;;9.25;7.50;;;;;23.27;43.05;101438.25;5020573;28;45307;-68
2022/07/30 05:39:29;;;;;;;;;8.75;6.75;;;;;23.34;43.09;101443.19;5021118;28;45502;-68
2022/07/30 05:41:54;;;;;;;;;7.75;6.75;;;;;23.31;43.02;101445.19;5020098;28;45388;-68
2022/07/30 05:44:20;;;;;;;;;8.00;8.00;;;;;23.30;42.87;101446.19;5016538;28;45653;-68
2022/07/30 05:46:45;;;;;;;;;7.00;6.75;;;;;23.31;42.91;101449.78;5020098;28;45519;-68
2022/07/30 05:49:11;;;;;;;;;8.75;6.75;;;;;23.33;43.35;101447.78;5017114;28;46284;-68
2022/07/30 05:51:36;;;;;;;;;7.00;6.50;;;;;23.34;43.01;101455.00;5015405;28;45236;-68
2022/07/30 05:54:01;;;;;;;;;8.00;8.00;;;;;23.33;42.81;101455.97;5019217;28;45861;-68
2022/07/30 05:56:27;;;;;;;;;7.50;7.50;;;;;23.29;42.55;101452.59;5020760;28;45392;-68
2022/07/30 05:58:52;;;;;;;;;9.00;8.00;;;;;23.20;42.72;101438.81;5020546;28;45173;-68
2022/07/30 06:01:17;;;;;;;;;8.75;6.00;;;;;23.26;42.27;101452.81;5020334;28;45357;-68
2022/07/30 06:03:44;;;;;;;;;9.25;8.00;;;;;23.25;42.82;101455.66;5020740;28;45309;-68
2022/07/30 06:06:09;;;;;;;;;7.75;7.75;;;;;23.26;42.99;101455.56;5020513;28;45352;-68
2022/07/30 06:08:34;;;;;;;;;11.00;8.00;;;;;23.27;43.36;101453.69;5020329;28;52150;-68
2022/07/30 06:11:00;;;;;;;;;7.00;7.00;;;;;23.29;43.16;101459.91;5020523;28;45292;-68
2022/07/30 06:13:25;;;;;;;;;9.00;7.25;;;;;23.30;42.74;101451.63;5018999;28;45419;-68
2022/07/30 06:15:51;;;;;;;;;7.00;6.25;;;;;23.35;43.82;101454.00;5015716;28;45344;-68
2022/07/30 06:18:16;;;;;;;;;11.00;10.00;;;;;23.36;43.63;101447.56;5020267;28;45413;-68
2022/07/30 06:20:42;;;;;;;;;9.00;8.00;;;;;23.42;43.51;101446.22;5019995;28;45507;-68
2022/07/30 06:23:07;;;;;;;;;8.00;7.00;;;;;23.47;43.17;101463.09;5019195;28;45417;-68
2022/07/30 06:25:32;;;;;;;;;6.75;6.75;;;;;23.49;43.54;101448.38;5019552;28;45395;-68
2022/07/30 06:27:58;;;;;;;;;6.00;6.00;;;;;23.49;43.75;101459.28;5018047;28;45445;-68
2022/07/30 06:30:23;;;;;;;;;8.00;8.00;;;;;23.53;43.25;101461.78;5017797;28;45299;-69
2022/07/30 06:32:49;;;;;;;;;7.75;7.00;;;;;23.54;42.71;101464.38;5020127;28;45402;-69
2022/07/30 06:35:14;;;;;;;;;7.25;7.00;;;;;23.54;43.20;101472.56;5018015;28;45349;-61
2022/07/30 06:37:41;;;;;;;;;10.25;8.25;;;;;23.55;42.67;101470.69;5016485;28;47185;-62
2022/07/30 06:40:07;;;;;;;;;9.25;7.00;;;;;23.54;42.90;101474.38;5019734;28;45602;-62
2022/07/30 06:42:33;;;;;;;;;9.00;7.25;;;;;23.56;43.24;101483.34;5019016;28;45708;-62
2022/07/30 06:44:58;;;;;;;;;9.25;7.75;;;;;23.60;43.05;101487.56;5018969;28;45612;-62
2022/07/30 06:47:30;;;;;;;;;12.50;10.00;;;;;23.62;42.60;101478.28;5016370;28;45356;-62
2022/07/30 06:49:56;;;;;;;;;10.50;8.00;;;;;23.63;42.54;101485.47;5011581;28;45527;-62
2022/07/30 06:52:22;;;;;;;;;8.00;8.00;;;;;23.67;42.52;101480.66;5020078;28;45324;-62
2022/07/30 06:54:47;;;;;;;;;9.25;8.25;;;;;23.68;42.44;101485.13;5019870;28;45224;-62
2022/07/30 06:57:14;;;;;;;;;8.00;8.00;;;;;23.73;42.49;101492.97;5016788;28;46001;-63
2022/07/30 06:59:39;;;;;;;;;8.75;8.75;;;;;23.74;42.52;101492.84;5017861;28;45332;-63
2022/07/30 07:02:04;;;;;;;;;7.00;7.00;;;;;23.73;42.27;101488.38;5018532;28;45469;-63
2022/07/30 07:04:31;;;;;;;;;7.25;7.25;;;;;23.76;43.17;101501.78;5017669;28;45486;-63
2022/07/30 07:06:57;;;;;;;;;5.50;5.00;;;;;23.79;42.61;101501.53;5013681;28;46082;-65
2022/07/30 07:09:22;;;;;;;;;6.75;6.25;;;;;23.79;42.85;101498.81;5016359;28;45595;-62
2022/07/30 07:11:47;;;;;;;;;7.50;6.50;;;;;23.86;42.91;101508.28;5018496;28;45431;-62
2022/07/30 07:14:13;;;;;;;;;5.00;5.00;;;;;23.86;42.90;101508.28;5018818;28;45769;-62
2022/07/30 07:16:38;;;;;;;;;6.75;6.75;;;;;23.92;42.52;101508.81;5018093;28;46227;-62
2022/07/30 07:19:03;;;;;;;;;8.00;7.75;;;;;23.95;42.94;101517.59;5014452;28;45500;-63
2022/07/30 07:21:29;;;;;;;;;7.00;6.75;;;;;23.96;42.47;101508.44;5021784;28;45450;-62
2022/07/30 07:23:54;;;;;;;;;8.25;8.25;;;;;23.95;42.44;101505.84;5017221;28;45502;-62
2022/07/30 07:26:19;;;;;;;;;7.00;7.00;;;;;23.96;41.80;101515.78;5018782;28;46066;-61
2022/07/30 07:28:45;;;;;;;;;6.75;6.75;;;;;24.00;41.58;101511.81;5013972;28;45427;-62
2022/07/30 07:31:10;;;;;;;;;7.75;6.00;;;;;24.01;41.84;101508.97;5018886;28;45647;-62
2022/07/30 07:33:36;;;;;;;;;6.50;5.75;;;;;24.01;42.39;101505.38;5015881;28;45657;-61
2022/07/30 07:36:02;;;;;;;;;7.00;5.75;;;;;24.07;41.74;101515.78;5019014;28;45428;-62
2022/07/30 07:38:28;;;;;;;;;8.75;7.75;;;;;24.10;41.56;101514.69;5011610;28;45404;-62
2022/07/30 07:40:53;;;;;;;;;7.00;5.75;;;;;24.07;41.36;101514.94;5018848;28;45466;-62
2022/07/30 07:43:18;;;;;;;;;7.25;7.00;;;;;24.11;41.72;101509.13;5011327;28;45410;-62
2022/07/30 07:45:44;;;;;;;;;7.00;7.00;;;;;24.14;41.87;101514.34;5017752;28;62129;-62
2022/07/30 07:48:10;;;;;;;;;7.50;6.25;;;;;24.18;41.48;101520.44;5018650;28;45419;-62
2022/07/30 07:50:36;;;;;;;;;7.25;7.25;;;;;24.18;41.41;101512.25;5014082;28;45458;-62
2022/07/30 07:53:01;;;;;;;;;6.50;6.50;;;;;24.18;41.68;101507.66;5015779;28;45824;-62
2022/07/30 07:55:27;;;;;;;;;7.25;6.25;;;;;24.18;41.57;101509.50;5016650;28;46316;-62
2022/07/30 07:57:52;;;;;;;;;7.00;6.00;;;;;24.23;41.45;101507.28;5017981;28;45552;-62
2022/07/30 08:00:17;;;;;;;;;7.00;5.50;;;;;24.29;41.06;101508.66;5017297;28;45389;-62
2022/07/30 08:02:43;;;;;;;;;6.00;4.25;;;;;24.34;41.25;101510.06;5021426;28;45668;-63
2022/07/30 08:05:11;;;;;;;;;6.25;6.25;;;;;24.38;41.28;101502.50;5021671;28;46572;-63
2022/07/30 08:07:37;;;;;;;;;6.00;6.00;;;;;24.45;41.09;101502.88;5022147;28;45550;-62
2022/07/30 08:10:02;;;;;;;;;7.75;7.75;;;;;24.47;41.54;101503.63;5014464;28;45347;-62
2022/07/30 08:12:28;;;;;;;;;6.25;6.25;;;;;24.47;40.77;101492.72;5018093;28;45903;-62
2022/07/30 08:14:53;;;;;;;;;8.75;7.00;;;;;24.49;41.33;101507.09;5021605;28;46037;-63
2022/07/30 08:17:18;;;;;;;;;7.00;6.00;;;;;24.51;40.65;101496.94;5022303;28;45405;-62
2022/07/30 08:19:44;;;;;;;;;7.50;6.50;;;;;24.57;40.85;101496.47;5020899;28;45471;-63
2022/07/30 08:22:09;;;;;;;;;7.00;7.00;;;;;24.62;41.09;101502.44;5018184;28;45416;-62
2022/07/30 08:24:35;;;;;;;;;4.50;4.50;;;;;24.66;41.81;101498.47;5021422;28;45411;-62
2022/07/30 08:27:00;;;;;;;;;5.00;5.00;;;;;24.67;40.92;101491.16;5020180;28;45225;-61
2022/07/30 08:29:25;;;;;;;;;6.75;6.25;;;;;24.73;41.28;101491.53;5022017;28;45225;-62
2022/07/30 08:31:51;;;;;;;;;5.75;5.00;;;;;24.78;41.31;101500.19;5020773;28;45260;-62
2022/07/30 08:34:17;;;;;;;;;7.25;5.75;;;;;24.84;40.81;101509.78;5016092;28;45413;-61
2022/07/30 08:36:42;;;;;;;;;5.25;5.25;;;;;24.89;40.74;101517.56;5021091;28;45424;-62
2022/07/30 08:39:08;;;;;;;;;4.75;4.75;;;;;24.92;40.58;101514.59;5020771;28;45520;-62
2022/07/30 08:41:35;;;;;;;;;4.50;4.50;;;;;24.95;40.12;101506.16;5018260;28;45237;-62
2022/07/30 08:44:02;;;;;;;;;4.50;4.50;;;;;25.00;40.57;101514.84;5021592;28;46126;-62
2022/07/30 08:46:30;;;;;;;;;5.00;5.00;;;;;25.05;40.25;101517.22;5021679;28;45306;-62
2022/07/30 08:48:57;;;;;;;;;8.00;6.00;;;;;25.08;39.84;101514.25;5019602;28;45222;-62
2022/07/30 08:51:23;;;;;;;;;5.50;5.00;;;;;25.11;39.48;101520.31;5013030;28;45569;-62
2022/07/30 08:53:49;;;;;;;;;6.00;6.00;;;;;25.14;39.50;101516.44;5020548;28;45430;-62
2022/07/30 08:56:16;;;;;;;;;6.75;5.75;;;;;25.15;39.36;101518.19;5020666;28;45381;-62
2022/07/30 08:58:41;;;;;;;;;5.25;5.25;;;;;25.20;39.18;101517.81;5021702;28;45482;-61
2022/07/30 09:01:06;;;;;;;;;5.25;5.00;;;;;25.20;39.34;101518.69;5021134;28;45491;-63
2022/07/30 09:03:33;;;;;;;;;4.00;4.00;;;;;25.25;39.66;101510.97;5015371;28;46276;-63
2022/07/30 09:06:03;;;;;;;;;5.00;5.00;;;;;25.27;38.83;101511.75;5020635;28;45697;-61
2022/07/30 09:08:28;;;;;;;;;5.00;3.50;;;;;25.31;38.16;101517.84;5021637;28;45465;-61
2022/07/30 09:10:54;;;;;;;;;4.75;4.75;;;;;25.36;39.03;101515.59;5021693;28;45539;-62
2022/07/30 09:13:34;;;;;;;;;4.75;4.75;;;;;25.41;38.40;101518.81;5017617;28;46300;-61
2022/07/30 09:16:00;;;;;;;;;6.00;5.00;;;;;25.45;38.38;101524.88;5017276;28;45399;-62
2022/07/30 09:18:34;;;;;;;;;5.50;5.25;;;;;25.49;37.65;101519.03;5018968;28;45471;-61
2022/07/30 09:21:12;;;;;;;;;3.75;3.75;;;;;25.51;37.77;101517.03;5018360;28;45486;-61
2022/07/30 09:23:38;;;;;;;;;4.50;3.75;;;;;25.57;37.50;101514.78;5018589;28;45461;-62
2022/07/30 09:26:03;;;;;;;;;4.00;4.00;;;;;25.61;38.18;101519.00;5018539;28;45894;-62
2022/07/30 09:28:31;;;;;;;;;5.00;5.00;;;;;25.66;36.93;101527.66;5020097;28;45385;-61
2022/07/30 09:30:57;;;;;;;;;5.00;5.00;;;;;25.69;37.83;101521.94;5020435;28;45382;-62
2022/07/30 09:33:38;;;;;;;;;5.00;4.00;;;;;25.72;36.93;101527.16;5020537;28;45427;-62
2022/07/30 09:36:05;;;;;;;;;7.00;5.00;;;;;25.74;37.29;101525.16;5020640;28;45411;-62
2022/07/30 09:38:46;;;;;;;;;4.00;3.00;;;;;25.77;36.59;101538.56;5021118;28;45874;-62
2022/07/30 09:41:13;;;;;;;;;5.25;4.00;;;;;25.75;37.66;101523.31;5020265;28;45512;-62
2022/07/30 09:43:47;;;;;;;;;4.00;3.00;;;;;25.86;37.51;101523.25;5020501;28;46618;-62
2022/07/30 09:46:13;;;;;;;;;3.50;3.50;;;;;25.91;36.31;101518.28;5020457;28;45765;-62
2022/07/30 09:48:39;;;;;;;;;3.50;3.50;;;;;25.95;37.05;101518.88;5020926;28;45335;-62
2022/07/30 09:51:04;;;;;;;;;5.00;4.25;;;;;26.02;36.44;101533.81;5015933;28;45246;-62
2022/07/30 09:53:31;;;;;;;;;3.50;3.50;;;;;26.04;35.85;101532.69;5020422;28;45993;-62
2022/07/30 09:55:58;;;;;;;;;6.00;6.00;;;;;26.07;36.75;101531.53;5020302;28;45409;-62
2022/07/30 09:58:24;;;;;;;;;5.00;5.00;;;;;26.09;35.82;101532.25;5020827;28;45322;-62
2022/07/30 10:00:57;;;;;;;;;5.25;5.25;;;;;26.13;36.39;101528.28;5018744;28;45510;-62
2022/07/30 10:03:25;;;;;;;;;3.75;3.75;;;;;26.13;35.72;101531.03;5019665;28;47452;-62
2022/07/30 10:05:57;;;;;;;;;4.75;4.25;;;;;26.15;36.19;101526.28;5020796;28;45486;-62
2022/07/30 10:08:43;;;;;;;;;6.00;6.00;;;;;26.21;35.52;101525.75;5020726;28;45233;-62
2022/07/30 10:11:14;;;;;;;;;6.25;5.00;;;;;26.23;35.76;101521.00;5019545;28;45309;-62
2022/07/30 10:13:40;;;;;;;;;5.25;5.25;;;;;26.27;36.02;101524.34;5019273;28;46305;-62
2022/07/30 10:16:06;;;;;;;;;4.00;4.00;;;;;26.33;36.21;101518.34;5019245;28;45530;-62
2022/07/30 10:18:33;;;;;;;;;6.50;5.75;;;;;26.36;35.71;101518.09;5020652;28;45390;-62
2022/07/30 10:21:00;;;;;;;;;5.25;4.25;;;;;26.43;35.42;101535.69;5018857;28;45599;-60
2022/07/30 10:23:28;;;;;;;;;4.00;4.00;;;;;26.45;35.24;101530.09;5018836;28;47001;-62
2022/07/30 10:25:55;;;;;;;;;4.00;4.00;;;;;26.47;35.56;101528.06;5017290;28;45323;-62
2022/07/30 10:28:23;;;;;;;;;3.50;3.25;;;;;26.49;35.72;101523.31;5009246;28;45434;-61
2022/07/30 10:30:49;;;;;;;;;5.00;5.00;;;;;26.52;35.85;101522.22;5013728;28;45439;-68
2022/07/30 10:33:16;;;;;;;;;8.75;7.00;;;;;26.55;34.92;101525.53;5000257;28;46933;-67
2022/07/30 10:35:42;;;;;;;;;6.25;6.00;;;;;26.60;35.81;101516.91;5012928;28;45562;-66
2022/07/30 10:38:13;;;;;;;;;3.25;3.25;;;;;26.66;36.70;101516.38;5013941;28;45225;-67
2022/07/30 10:40:49;;;;;;;;;5.75;5.00;;;;;26.75;35.98;101499.16;5020287;28;45247;-67
2022/07/30 10:43:14;;;;;;;;;4.25;4.25;;;;;26.82;36.29;101491.25;5019131;28;46191;-67
2022/07/30 10:45:57;;;;;;;;;4.67;4.67;;;;;26.86;35.31;101492.69;5014801;28;45383;-67
2022/07/30 10:48:24;;;;;;;;;3.75;3.50;;;;;26.88;35.07;101498.03;5011858;28;45220;-67
2022/07/30 10:50:52;;;;;;;;;3.50;3.50;;;;;26.88;35.18;101498.94;5019741;28;45420;-67
2022/07/30 10:53:34;;;;;;;;;4.25;4.25;;;;;26.92;35.53;101497.63;5019381;28;46430;-67
2022/07/30 10:56:17;;;;;;;;;4.50;4.50;;;;;26.97;35.34;101503.56;5019705;28;45336;-67
2022/07/30 10:59:03;;;;;;;;;3.75;3.75;;;;;27.05;35.56;101500.16;5019964;28;45249;-67
2022/07/30 11:01:47;;;;;;;;;3.50;3.50;;;;;27.13;35.02;101499.44;5018351;28;45325;-67
2022/07/30 11:04:26;;;;;;;;;4.00;4.00;;;;;27.15;34.69;101487.34;5015908;28;46044;-67
2022/07/30 11:07:12;;;;;;;;;4.75;4.00;;;;;27.21;34.83;101490.53;5019682;28;45504;-67
2022/07/30 11:09:44;;;;;;;;;5.00;5.00;;;;;27.19;34.53;101476.97;5019887;28;45301;-67
2022/07/30 11:12:09;;;;;;;;;7.00;7.00;;;;;27.24;34.68;101480.13;5017275;28;45410;-67
2022/07/30 11:14:47;;;;;;;;;4.00;4.00;;;;;27.27;35.25;101482.59;5017627;28;45975;-67
2022/07/30 11:17:15;;;;;;;;;3.50;3.50;;;;;27.30;34.87;101486.97;5015743;28;45712;-67
2022/07/30 11:20:03;;;;;;;;;4.00;4.00;;;;;27.33;34.85;101478.44;5009937;28;45423;-67
2022/07/30 11:22:35;;;;;;;;;3.75;3.75;;;;;27.34;35.18;101475.56;5019153;28;45470;-67
2022/07/30 11:25:00;;;;;;;;;3.50;2.75;;;;;27.41;35.84;101478.63;5018514;28;47132;-67
2022/07/30 11:27:39;;;;;;;;;5.00;5.00;;;;;27.46;34.85;101475.44;5004259;28;45700;-67